sensor_id;sensor_type;location;lat;lon;timestamp;pressure;altitude;pressure_sealevel;temperature;humidity
34742;BME280;20968;42.696;23.360;2023-02-19T00:01:37;95522.47;;;10.37;50.50
34742;BME280;20968;42.696;23.360;2023-02-19T00:04:06;95536.66;;;10.44;50.24
34742;BME280;20968;42.696;23.360;2023-02-19T00:06:33;95534.47;;;10.48;50.14
34742;BME280;20968;42.696;23.360;2023-02-19T00:08:59;95524.13;;;10.43;50.35
34742;BME280;20968;42.696;23.360;2023-02-19T00:11:28;95526.41;;;10.45;50.25
34742;BME280;20968;42.696;23.360;2023-02-19T00:13:56;95514.50;;;10.39;49.99
34742;BME280;20968;42.696;23.360;2023-02-19T00:16:25;95531.97;;;10.36;50.33
34742;BME280;20968;42.696;23.360;2023-02-19T00:18:51;95511.41;;;10.22;50.46
34742;BME280;20968;42.696;23.360;2023-02-19T00:21:18;95515.22;;;10.25;50.69
34742;BME280;20968;42.696;23.360;2023-02-19T00:23:48;95525.16;;;10.22;50.49
34742;BME280;20968;42.696;23.360;2023-02-19T00:26:14;95517.56;;;10.17;50.73
34742;BME280;20968;42.696;23.360;2023-02-19T00:28:39;95510.63;;;10.22;50.55
34742;BME280;20968;42.696;23.360;2023-02-19T00:31:24;95519.50;;;10.26;50.58
34742;BME280;20968;42.696;23.360;2023-02-19T00:33:52;95508.34;;;10.20;50.54
34742;BME280;20968;42.696;23.360;2023-02-19T00:36:19;95512.63;;;10.21;50.88
34742;BME280;20968;42.696;23.360;2023-02-19T00:38:45;95514.03;;;10.17;50.70
34742;BME280;20968;42.696;23.360;2023-02-19T00:41:12;95511.16;;;10.11;51.01
34742;BME280;20968;42.696;23.360;2023-02-19T00:43:46;95499.88;;;10.09;50.88
34742;BME280;20968;42.696;23.360;2023-02-19T00:46:11;95496.03;;;10.07;50.87
34742;BME280;20968;42.696;23.360;2023-02-19T00:48:36;95496.22;;;10.04;50.96
34742;BME280;20968;42.696;23.360;2023-02-19T00:51:02;95484.16;;;10.01;50.80
34742;BME280;20968;42.696;23.360;2023-02-19T00:53:27;95475.31;;;9.97;51.39
34742;BME280;20968;42.696;23.360;2023-02-19T00:55:53;95479.44;;;10.02;50.87
34742;BME280;20968;42.696;23.360;2023-02-19T00:58:18;95485.22;;;10.04;51.32
34742;BME280;20968;42.696;23.360;2023-02-19T01:00:43;95483.69;;;10.03;50.76
34742;BME280;20968;42.696;23.360;2023-02-19T01:03:10;95484.63;;;10.00;50.93
34742;BME280;20968;42.696;23.360;2023-02-19T01:05:35;95490.78;;;9.86;51.71
34742;BME280;20968;42.696;23.360;2023-02-19T01:08:00;95483.63;;;9.79;51.31
34742;BME280;20968;42.696;23.360;2023-02-19T01:10:26;95490.56;;;9.66;51.30
34742;BME280;20968;42.696;23.360;2023-02-19T01:12:51;95496.84;;;9.66;51.87
34742;BME280;20968;42.696;23.360;2023-02-19T01:15:17;95492.03;;;9.43;52.70
34742;BME280;20968;42.696;23.360;2023-02-19T01:17:42;95486.19;;;9.50;52.02
34742;BME280;20968;42.696;23.360;2023-02-19T01:20:08;95483.91;;;9.49;52.60
34742;BME280;20968;42.696;23.360;2023-02-19T01:22:33;95477.16;;;9.50;52.18
34742;BME280;20968;42.696;23.360;2023-02-19T01:24:59;95474.91;;;9.39;52.12
34742;BME280;20968;42.696;23.360;2023-02-19T01:27:24;95483.50;;;9.32;52.30
34742;BME280;20968;42.696;23.360;2023-02-19T01:29:50;95467.34;;;9.17;52.53
34742;BME280;20968;42.696;23.360;2023-02-19T01:32:15;95489.06;;;9.15;52.85
34742;BME280;20968;42.696;23.360;2023-02-19T01:34:40;95485.25;;;9.03;53.11
34742;BME280;20968;42.696;23.360;2023-02-19T01:37:06;95492.56;;;8.97;54.15
34742;BME280;20968;42.696;23.360;2023-02-19T01:39:37;95493.03;;;9.05;53.22
34742;BME280;20968;42.696;23.360;2023-02-19T01:42:11;95502.00;;;9.14;54.01
34742;BME280;20968;42.696;23.360;2023-02-19T01:47:02;95515.72;;;9.32;53.33
34742;BME280;20968;42.696;23.360;2023-02-19T01:49:31;95524.84;;;9.38;52.73
34742;BME280;20968;42.696;23.360;2023-02-19T01:52:22;95520.28;;;9.35;53.53
34742;BME280;20968;42.696;23.360;2023-02-19T01:54:52;95527.00;;;9.34;53.42
34742;BME280;20968;42.696;23.360;2023-02-19T01:57:23;95523.66;;;9.30;54.05
34742;BME280;20968;42.696;23.360;2023-02-19T01:59:52;95515.41;;;9.39;52.97
34742;BME280;20968;42.696;23.360;2023-02-19T02:02:20;95516.91;;;9.40;53.44
34742;BME280;20968;42.696;23.360;2023-02-19T02:04:46;95519.34;;;9.38;53.72
34742;BME280;20968;42.696;23.360;2023-02-19T02:07:13;95518.75;;;9.34;53.11
34742;BME280;20968;42.696;23.360;2023-02-19T02:09:57;95513.53;;;9.45;53.21
34742;BME280;20968;42.696;23.360;2023-02-19T02:12:41;95512.34;;;9.28;53.66
34742;BME280;20968;42.696;23.360;2023-02-19T02:15:07;95523.66;;;9.21;53.86
34742;BME280;20968;42.696;23.360;2023-02-19T02:23:39;95521.81;;;9.27;53.45
34742;BME280;20968;42.696;23.360;2023-02-19T02:26:29;95521.88;;;9.00;54.48
34742;BME280;20968;42.696;23.360;2023-02-19T02:29:25;95528.41;;;8.94;54.46
34742;BME280;20968;42.696;23.360;2023-02-19T02:31:58;95517.00;;;8.95;54.86
34742;BME280;20968;42.696;23.360;2023-02-19T02:34:31;95510.88;;;8.91;54.59
34742;BME280;20968;42.696;23.360;2023-02-19T02:36:59;95520.97;;;8.94;54.47
34742;BME280;20968;42.696;23.360;2023-02-19T02:39:26;95501.75;;;8.85;54.27
34742;BME280;20968;42.696;23.360;2023-02-19T02:41:57;95514.69;;;8.85;54.65
34742;BME280;20968;42.696;23.360;2023-02-19T02:44:41;95511.66;;;8.65;54.83
34742;BME280;20968;42.696;23.360;2023-02-19T02:47:28;95513.94;;;8.57;54.79
34742;BME280;20968;42.696;23.360;2023-02-19T02:50:08;95502.03;;;8.51;55.42
34742;BME280;20968;42.696;23.360;2023-02-19T02:52:37;95508.75;;;8.42;55.98
34742;BME280;20968;42.696;23.360;2023-02-19T02:55:24;95511.66;;;8.38;55.71
34742;BME280;20968;42.696;23.360;2023-02-19T02:57:50;95498.81;;;8.26;56.28
34742;BME280;20968;42.696;23.360;2023-02-19T03:00:16;95517.88;;;8.39;55.45
34742;BME280;20968;42.696;23.360;2023-02-19T03:02:42;95524.13;;;8.39;55.74
34742;BME280;20968;42.696;23.360;2023-02-19T03:05:21;95524.28;;;8.45;56.15
34742;BME280;20968;42.696;23.360;2023-02-19T03:08:15;95531.91;;;8.58;56.12
34742;BME280;20968;42.696;23.360;2023-02-19T03:10:47;95526.00;;;8.60;54.93
34742;BME280;20968;42.696;23.360;2023-02-19T03:13:19;95531.00;;;8.52;55.07
34742;BME280;20968;42.696;23.360;2023-02-19T03:16:08;95538.91;;;8.50;55.88
34742;BME280;20968;42.696;23.360;2023-02-19T03:18:57;95544.72;;;8.44;55.63
34742;BME280;20968;42.696;23.360;2023-02-19T03:21:43;95543.50;;;8.53;55.27
34742;BME280;20968;42.696;23.360;2023-02-19T03:24:10;95543.84;;;8.64;55.14
34742;BME280;20968;42.696;23.360;2023-02-19T03:26:58;95549.47;;;8.70;54.99
34742;BME280;20968;42.696;23.360;2023-02-19T03:29:27;95540.63;;;8.66;55.33
34742;BME280;20968;42.696;23.360;2023-02-19T03:32:01;95556.34;;;8.65;54.75
34742;BME280;20968;42.696;23.360;2023-02-19T03:34:41;95561.06;;;8.65;55.17
34742;BME280;20968;42.696;23.360;2023-02-19T03:37:19;95561.06;;;8.65;54.91
34742;BME280;20968;42.696;23.360;2023-02-19T03:39:50;95557.06;;;8.48;54.60
34742;BME280;20968;42.696;23.360;2023-02-19T03:45:17;95575.41;;;8.69;54.97
34742;BME280;20968;42.696;23.360;2023-02-19T03:48:06;95575.84;;;8.67;54.62
34742;BME280;20968;42.696;23.360;2023-02-19T03:50:46;95584.72;;;8.71;54.30
34742;BME280;20968;42.696;23.360;2023-02-19T03:53:29;95584.09;;;8.76;54.69
34742;BME280;20968;42.696;23.360;2023-02-19T03:56:42;95573.28;;;8.73;55.07
34742;BME280;20968;42.696;23.360;2023-02-19T03:59:29;95579.97;;;8.81;54.71
34742;BME280;20968;42.696;23.360;2023-02-19T04:02:10;95582.56;;;8.75;55.07
34742;BME280;20968;42.696;23.360;2023-02-19T04:04:55;95588.53;;;8.83;54.49
34742;BME280;20968;42.696;23.360;2023-02-19T04:07:24;95580.59;;;8.85;54.43
34742;BME280;20968;42.696;23.360;2023-02-19T04:09:51;95586.25;;;8.90;54.15
34742;BME280;20968;42.696;23.360;2023-02-19T04:12:19;95591.56;;;8.94;54.20
34742;BME280;20968;42.696;23.360;2023-02-19T04:15:06;95591.88;;;8.96;54.42
34742;BME280;20968;42.696;23.360;2023-02-19T04:17:45;95589.75;;;8.91;54.74
34742;BME280;20968;42.696;23.360;2023-02-19T04:20:13;95598.13;;;8.96;54.03
34742;BME280;20968;42.696;23.360;2023-02-19T04:22:39;95588.69;;;8.88;54.35
34742;BME280;20968;42.696;23.360;2023-02-19T04:25:06;95588.84;;;8.94;53.86
34742;BME280;20968;42.696;23.360;2023-02-19T04:27:35;95582.25;;;8.82;54.91
34742;BME280;20968;42.696;23.360;2023-02-19T04:30:03;95569.28;;;8.65;55.51
34742;BME280;20968;42.696;23.360;2023-02-19T04:32:29;95594.63;;;8.78;54.78
34742;BME280;20968;42.696;23.360;2023-02-19T04:34:54;95591.09;;;8.59;55.59
34742;BME280;20968;42.696;23.360;2023-02-19T04:37:19;95595.66;;;8.62;55.89
34742;BME280;20968;42.696;23.360;2023-02-19T04:39:45;95593.25;;;8.64;55.15
34742;BME280;20968;42.696;23.360;2023-02-19T04:42:10;95586.38;;;8.69;54.86
34742;BME280;20968;42.696;23.360;2023-02-19T04:44:35;95594.00;;;8.74;55.46
34742;BME280;20968;42.696;23.360;2023-02-19T04:47:01;95603.13;;;8.62;55.21
34742;BME280;20968;42.696;23.360;2023-02-19T04:49:26;95608.19;;;8.72;55.19
34742;BME280;20968;42.696;23.360;2023-02-19T04:51:52;95598.13;;;8.78;54.92
34742;BME280;20968;42.696;23.360;2023-02-19T04:54:17;95599.81;;;8.76;55.09
34742;BME280;20968;42.696;23.360;2023-02-19T04:56:42;95582.25;;;8.73;55.01
34742;BME280;20968;42.696;23.360;2023-02-19T04:59:08;95607.44;;;8.81;55.08
34742;BME280;20968;42.696;23.360;2023-02-19T05:01:34;95606.03;;;8.67;55.20
34742;BME280;20968;42.696;23.360;2023-02-19T05:03:59;95609.69;;;8.73;55.12
34742;BME280;20968;42.696;23.360;2023-02-19T05:06:25;95615.34;;;8.79;55.80
34742;BME280;20968;42.696;23.360;2023-02-19T05:08:50;95598.75;;;8.82;55.48
34742;BME280;20968;42.696;23.360;2023-02-19T05:11:15;95613.53;;;8.85;55.44
34742;BME280;20968;42.696;23.360;2023-02-19T05:13:41;95610.31;;;8.68;55.13
34742;BME280;20968;42.696;23.360;2023-02-19T05:16:10;95615.34;;;8.79;55.35
34742;BME280;20968;42.696;23.360;2023-02-19T05:18:38;95599.97;;;8.72;55.81
34742;BME280;20968;42.696;23.360;2023-02-19T05:21:04;95612.75;;;8.66;56.16
34742;BME280;20968;42.696;23.360;2023-02-19T05:23:30;95604.53;;;8.57;55.46
34742;BME280;20968;42.696;23.360;2023-02-19T05:25:55;95617.44;;;8.48;55.81
34742;BME280;20968;42.696;23.360;2023-02-19T05:28:21;95610.59;;;8.61;56.55
34742;BME280;20968;42.696;23.360;2023-02-19T05:30:52;95615.19;;;8.64;55.68
34742;BME280;20968;42.696;23.360;2023-02-19T05:33:20;95621.63;;;8.70;56.45
34742;BME280;20968;42.696;23.360;2023-02-19T05:35:51;95632.31;;;8.86;55.47
34742;BME280;20968;42.696;23.360;2023-02-19T05:38:17;95634.44;;;8.82;55.41
34742;BME280;20968;42.696;23.360;2023-02-19T05:40:43;95646.81;;;8.96;55.36
34742;BME280;20968;42.696;23.360;2023-02-19T05:43:09;95628.34;;;8.96;55.44
34742;BME280;20968;42.696;23.360;2023-02-19T05:45:36;95654.28;;;9.04;54.56
34742;BME280;20968;42.696;23.360;2023-02-19T05:48:03;95642.06;;;8.96;55.33
34742;BME280;20968;42.696;23.360;2023-02-19T05:50:30;95652.78;;;9.03;54.42
34742;BME280;20968;42.696;23.360;2023-02-19T05:52:59;95643.31;;;8.86;54.93
34742;BME280;20968;42.696;23.360;2023-02-19T05:55:25;95651.25;;;8.93;54.55
34742;BME280;20968;42.696;23.360;2023-02-19T05:57:51;95651.41;;;8.99;55.21
34742;BME280;20968;42.696;23.360;2023-02-19T06:00:18;95666.06;;;9.05;54.28
34742;BME280;20968;42.696;23.360;2023-02-19T06:02:45;95648.38;;;9.15;55.27
34742;BME280;20968;42.696;23.360;2023-02-19T06:05:11;95645.16;;;9.16;54.92
34742;BME280;20968;42.696;23.360;2023-02-19T06:07:36;95652.47;;;9.28;54.99
34742;BME280;20968;42.696;23.360;2023-02-19T06:10:05;95669.28;;;9.39;54.98
34742;BME280;20968;42.696;23.360;2023-02-19T06:12:30;95678.13;;;9.52;54.39
34742;BME280;20968;42.696;23.360;2023-02-19T06:14:56;95674.16;;;9.62;54.09
34742;BME280;20968;42.696;23.360;2023-02-19T06:17:21;95669.72;;;9.64;54.72
34742;BME280;20968;42.696;23.360;2023-02-19T06:19:46;95660.09;;;9.60;53.62
34742;BME280;20968;42.696;23.360;2023-02-19T06:22:14;95664.81;;;9.68;53.69
34742;BME280;20968;42.696;23.360;2023-02-19T06:24:39;95677.50;;;9.84;54.05
34742;BME280;20968;42.696;23.360;2023-02-19T06:27:06;95678.72;;;9.92;53.10
34742;BME280;20968;42.696;23.360;2023-02-19T06:29:31;95668.94;;;9.91;53.40
34742;BME280;20968;42.696;23.360;2023-02-19T06:31:58;95675.31;;;9.97;52.90
34742;BME280;20968;42.696;23.360;2023-02-19T06:34:24;95673.50;;;9.94;53.09
34742;BME280;20968;42.696;23.360;2023-02-19T06:36:49;95672.28;;;9.95;52.92
34742;BME280;20968;42.696;23.360;2023-02-19T06:39:15;95684.66;;;9.99;53.09
34742;BME280;20968;42.696;23.360;2023-02-19T06:41:40;95672.28;;;10.04;52.02
34742;BME280;20968;42.696;23.360;2023-02-19T06:44:06;95667.72;;;10.01;52.66
34742;BME280;20968;42.696;23.360;2023-02-19T06:46:31;95672.88;;;10.16;51.77
34742;BME280;20968;42.696;23.360;2023-02-19T06:48:56;95682.19;;;10.19;52.43
34742;BME280;20968;42.696;23.360;2023-02-19T06:51:22;95680.19;;;10.19;51.37
34742;BME280;20968;42.696;23.360;2023-02-19T06:53:50;95689.94;;;10.29;52.23
34742;BME280;20968;42.696;23.360;2023-02-19T06:58:54;95691.28;;;10.43;51.30
34742;BME280;20968;42.696;23.360;2023-02-19T07:01:20;95694.16;;;10.48;51.05
34742;BME280;20968;42.696;23.360;2023-02-19T07:03:46;95686.97;;;10.51;50.85
34742;BME280;20968;42.696;23.360;2023-02-19T07:06:11;95703.06;;;10.76;50.59
34742;BME280;20968;42.696;23.360;2023-02-19T07:08:36;95694.16;;;10.89;50.19
34742;BME280;20968;42.696;23.360;2023-02-19T07:11:02;95697.56;;;11.08;49.97
34742;BME280;20968;42.696;23.360;2023-02-19T07:13:28;95697.91;;;11.24;49.79
34742;BME280;20968;42.696;23.360;2023-02-19T07:15:58;95688.56;;;11.45;49.60
34742;BME280;20968;42.696;23.360;2023-02-19T07:18:24;95688.47;;;11.63;48.78
34742;BME280;20968;42.696;23.360;2023-02-19T07:20:51;95681.09;;;11.83;48.12
34742;BME280;20968;42.696;23.360;2023-02-19T07:23:17;95684.16;;;12.00;47.41
34742;BME280;20968;42.696;23.360;2023-02-19T07:25:42;95677.75;;;12.08;47.81
34742;BME280;20968;42.696;23.360;2023-02-19T07:28:07;95655.22;;;12.10;47.70
34742;BME280;20968;42.696;23.360;2023-02-19T07:30:34;95661.75;;;12.27;48.21
34742;BME280;20968;42.696;23.360;2023-02-19T07:32:59;95664.13;;;12.48;47.22
34742;BME280;20968;42.696;23.360;2023-02-19T07:35:25;95666.31;;;12.58;46.86
34742;BME280;20968;42.696;23.360;2023-02-19T07:37:50;95657.63;;;12.65;46.85
34742;BME280;20968;42.696;23.360;2023-02-19T07:40:16;95660.34;;;12.80;47.19
34742;BME280;20968;42.696;23.360;2023-02-19T07:42:41;95663.13;;;12.94;46.22
34742;BME280;20968;42.696;23.360;2023-02-19T07:45:07;95665.19;;;12.99;46.36
34742;BME280;20968;42.696;23.360;2023-02-19T07:47:32;95653.03;;;13.11;46.28
34742;BME280;20968;42.696;23.360;2023-02-19T07:49:57;95657.75;;;13.25;45.77
34742;BME280;20968;42.696;23.360;2023-02-19T07:52:23;95649.72;;;13.27;45.45
34742;BME280;20968;42.696;23.360;2023-02-19T07:54:48;95649.59;;;13.36;45.58
34742;BME280;20968;42.696;23.360;2023-02-19T07:57:14;95660.81;;;13.47;45.25
34742;BME280;20968;42.696;23.360;2023-02-19T07:59:39;95663.16;;;13.54;45.36
34742;BME280;20968;42.696;23.360;2023-02-19T08:02:14;95653.94;;;13.62;45.33
34742;BME280;20968;42.696;23.360;2023-02-19T08:04:59;95660.22;;;13.83;44.94
34742;BME280;20968;42.696;23.360;2023-02-19T08:07:30;95658.84;;;13.98;44.38
34742;BME280;20968;42.696;23.360;2023-02-19T08:09:55;95656.50;;;14.11;44.01
34742;BME280;20968;42.696;23.360;2023-02-19T08:12:40;95649.06;;;14.22;43.74
34742;BME280;20968;42.696;23.360;2023-02-19T08:15:24;95658.63;;;14.21;43.85
34742;BME280;20968;42.696;23.360;2023-02-19T08:17:50;95646.97;;;14.17;44.08
34742;BME280;20968;42.696;23.360;2023-02-19T08:20:15;95649.50;;;14.15;43.27
34742;BME280;20968;42.696;23.360;2023-02-19T08:22:40;95666.19;;;14.52;47.78
34742;BME280;20968;42.696;23.360;2023-02-19T08:25:06;95649.88;;;14.59;43.44
34742;BME280;20968;42.696;23.360;2023-02-19T08:27:32;95652.41;;;14.63;42.92
34742;BME280;20968;42.696;23.360;2023-02-19T08:29:57;95650.16;;;14.67;42.43
34742;BME280;20968;42.696;23.360;2023-02-19T08:32:23;95644.44;;;14.76;42.40
34742;BME280;20968;42.696;23.360;2023-02-19T08:34:48;95643.28;;;14.87;42.10
34742;BME280;20968;42.696;23.360;2023-02-19T08:37:13;95654.88;;;14.91;41.96
34742;BME280;20968;42.696;23.360;2023-02-19T08:39:39;95650.31;;;14.88;42.13
34742;BME280;20968;42.696;23.360;2023-02-19T08:42:05;95651.28;;;15.16;49.89
34742;BME280;20968;42.696;23.360;2023-02-19T08:44:31;95653.53;;;15.59;44.13
34742;BME280;20968;42.696;23.360;2023-02-19T08:46:57;95641.91;;;15.61;40.45
34742;BME280;20968;42.696;23.360;2023-02-19T08:49:25;95631.75;;;15.42;41.19
34742;BME280;20968;42.696;23.360;2023-02-19T08:51:51;95633.78;;;15.41;41.39
34742;BME280;20968;42.696;23.360;2023-02-19T08:54:16;95635.78;;;15.41;41.54
34742;BME280;20968;42.696;23.360;2023-02-19T08:56:42;95629.97;;;15.44;41.49
34742;BME280;20968;42.696;23.360;2023-02-19T08:59:07;95634.25;;;15.40;41.60
34742;BME280;20968;42.696;23.360;2023-02-19T09:01:33;95615.84;;;15.37;42.04
34742;BME280;20968;42.696;23.360;2023-02-19T09:03:58;95612.28;;;15.36;41.26
34742;BME280;20968;42.696;23.360;2023-02-19T09:06:24;95614.56;;;15.32;41.94
34742;BME280;20968;42.696;23.360;2023-02-19T09:08:50;95615.59;;;15.40;41.70
34742;BME280;20968;42.696;23.360;2023-02-19T09:11:15;95607.50;;;15.42;41.95
34742;BME280;20968;42.696;23.360;2023-02-19T09:13:41;95608.78;;;15.47;41.59
34742;BME280;20968;42.696;23.360;2023-02-19T09:16:06;95593.44;;;15.57;40.96
34742;BME280;20968;42.696;23.360;2023-02-19T09:18:32;95596.00;;;15.65;41.25
34742;BME280;20968;42.696;23.360;2023-02-19T09:21:02;95586.88;;;15.65;41.59
34742;BME280;20968;42.696;23.360;2023-02-19T09:23:29;95591.97;;;15.72;41.82
34742;BME280;20968;42.696;23.360;2023-02-19T09:25:59;95589.97;;;15.78;42.36
34742;BME280;20968;42.696;23.360;2023-02-19T09:28:25;95597.28;;;15.81;41.67
34742;BME280;20968;42.696;23.360;2023-02-19T09:30:51;95596.28;;;15.78;42.22
34742;BME280;20968;42.696;23.360;2023-02-19T09:33:16;95587.44;;;15.80;41.91
34742;BME280;20968;42.696;23.360;2023-02-19T09:35:42;95581.63;;;15.83;41.96
34742;BME280;20968;42.696;23.360;2023-02-19T09:38:07;95590.72;;;15.84;42.24
34742;BME280;20968;42.696;23.360;2023-02-19T09:40:35;95595.06;;;16.01;41.67
34742;BME280;20968;42.696;23.360;2023-02-19T09:43:05;95590.00;;;15.94;41.86
34742;BME280;20968;42.696;23.360;2023-02-19T09:45:33;95573.59;;;16.02;40.97
34742;BME280;20968;42.696;23.360;2023-02-19T09:48:00;95587.50;;;16.18;41.43
34742;BME280;20968;42.696;23.360;2023-02-19T09:50:36;95579.91;;;16.24;41.02
34742;BME280;20968;42.696;23.360;2023-02-19T09:53:09;95578.19;;;16.38;41.12
34742;BME280;20968;42.696;23.360;2023-02-19T09:55:41;95580.97;;;16.43;40.49
34742;BME280;20968;42.696;23.360;2023-02-19T09:58:31;95570.59;;;16.43;40.28
34742;BME280;20968;42.696;23.360;2023-02-19T10:01:00;95567.03;;;16.48;40.50
34742;BME280;20968;42.696;23.360;2023-02-19T10:03:38;95562.47;;;16.67;41.23
34742;BME280;20968;42.696;23.360;2023-02-19T10:06:10;95554.06;;;16.95;43.38
34742;BME280;20968;42.696;23.360;2023-02-19T10:08:39;95549.75;;;17.05;39.39
34742;BME280;20968;42.696;23.360;2023-02-19T10:11:06;95540.09;;;17.11;38.97
34742;BME280;20968;42.696;23.360;2023-02-19T10:13:43;95525.91;;;17.14;39.04
34742;BME280;20968;42.696;23.360;2023-02-19T10:16:15;95525.38;;;17.21;38.37
34742;BME280;20968;42.696;23.360;2023-02-19T10:18:43;95518.53;;;17.22;38.61
34742;BME280;20968;42.696;23.360;2023-02-19T10:21:19;95516.50;;;17.34;38.23
34742;BME280;20968;42.696;23.360;2023-02-19T10:23:48;95509.38;;;17.38;37.73
34742;BME280;20968;42.696;23.360;2023-02-19T10:26:15;95489.88;;;17.44;37.44
34742;BME280;20968;42.696;23.360;2023-02-19T10:28:41;95497.69;;;17.45;37.55
34742;BME280;20968;42.696;23.360;2023-02-19T10:31:20;95483.03;;;17.80;37.95
34742;BME280;20968;42.696;23.360;2023-02-19T10:33:53;95485.38;;;17.76;36.69
34742;BME280;20968;42.696;23.360;2023-02-19T10:36:37;95468.53;;;17.87;37.14
34742;BME280;20968;42.696;23.360;2023-02-19T10:39:37;95463.22;;;17.89;36.07
34742;BME280;20968;42.696;23.360;2023-02-19T10:41:59;95468.69;;;17.70;36.14
34742;BME280;20968;42.696;23.360;2023-02-19T10:44:27;95458.56;;;17.67;36.41
34742;BME280;20968;42.696;23.360;2023-02-19T10:46:55;95451.13;;;17.81;36.53
34742;BME280;20968;42.696;23.360;2023-02-19T10:49:23;95435.28;;;17.99;36.14
34742;BME280;20968;42.696;23.360;2023-02-19T10:51:51;95451.84;;;18.16;36.07
34742;BME280;20968;42.696;23.360;2023-02-19T10:54:28;95438.19;;;18.12;35.44
34742;BME280;20968;42.696;23.360;2023-02-19T10:59:55;95429.91;;;18.31;35.32
34742;BME280;20968;42.696;23.360;2023-02-19T11:02:26;95432.19;;;18.32;35.10
34742;BME280;20968;42.696;23.360;2023-02-19T11:07:49;95415.91;;;18.36;35.28
34742;BME280;20968;42.696;23.360;2023-02-19T11:12:52;95400.84;;;18.45;34.86
34742;BME280;20968;42.696;23.360;2023-02-19T11:15:20;95398.81;;;18.45;35.09
34742;BME280;20968;42.696;23.360;2023-02-19T11:17:54;95401.25;;;18.54;34.52
34742;BME280;20968;42.696;23.360;2023-02-19T11:20:20;95384.81;;;18.51;34.81
34742;BME280;20968;42.696;23.360;2023-02-19T11:22:46;95377.94;;;18.52;34.62
34742;BME280;20968;42.696;23.360;2023-02-19T11:27:59;95375.06;;;18.81;34.04
34742;BME280;20968;42.696;23.360;2023-02-19T11:32:54;95368.88;;;19.25;33.58
34742;BME280;20968;42.696;23.360;2023-02-19T11:35:21;95358.22;;;19.42;33.28
34742;BME280;20968;42.696;23.360;2023-02-19T11:38:00;95350.53;;;19.60;32.77
34742;BME280;20968;42.696;23.360;2023-02-19T11:48:52;95338.19;;;20.13;31.91
34742;BME280;20968;42.696;23.360;2023-02-19T11:59:52;95320.69;;;20.26;30.90
34742;BME280;20968;42.696;23.360;2023-02-19T12:02:34;95324.66;;;20.43;30.95
34742;BME280;20968;42.696;23.360;2023-02-19T12:08:20;95314.41;;;20.58;30.56
34742;BME280;20968;42.696;23.360;2023-02-19T12:11:07;95304.50;;;20.57;30.63
34742;BME280;20968;42.696;23.360;2023-02-19T12:17:20;95292.53;;;20.83;30.32
34742;BME280;20968;42.696;23.360;2023-02-19T12:22:32;95283.44;;;21.03;29.72
34742;BME280;20968;42.696;23.360;2023-02-19T12:25:28;95280.34;;;20.93;29.32
34742;BME280;20968;42.696;23.360;2023-02-19T12:28:15;95280.66;;;20.90;29.28
34742;BME280;20968;42.696;23.360;2023-02-19T12:45:02;95237.31;;;21.04;28.61
34742;BME280;20968;42.696;23.360;2023-02-19T12:47:37;95225.03;;;20.73;28.88
34742;BME280;20968;42.696;23.360;2023-02-19T12:50:22;95222.28;;;20.94;28.87
34742;BME280;20968;42.696;23.360;2023-02-19T12:52:53;95223.19;;;21.09;28.44
34742;BME280;20968;42.696;23.360;2023-02-19T12:55:27;95214.03;;;21.09;28.58
34742;BME280;20968;42.696;23.360;2023-02-19T12:57:54;95210.28;;;21.06;28.52
34742;BME280;20968;42.696;23.360;2023-02-19T13:00:34;95202.00;;;21.21;28.29
34742;BME280;20968;42.696;23.360;2023-02-19T13:03:27;95194.22;;;21.27;28.12
34742;BME280;20968;42.696;23.360;2023-02-19T13:08:45;95186.50;;;21.20;28.22
34742;BME280;20968;42.696;23.360;2023-02-19T13:11:19;95182.06;;;21.24;28.90
34742;BME280;20968;42.696;23.360;2023-02-19T13:13:53;95180.41;;;21.09;28.89
34742;BME280;20968;42.696;23.360;2023-02-19T13:16:22;95170.97;;;21.19;28.51
34742;BME280;20968;42.696;23.360;2023-02-19T13:18:57;95162.75;;;21.41;27.97
34742;BME280;20968;42.696;23.360;2023-02-19T13:21:26;95165.19;;;21.65;28.20
34742;BME280;20968;42.696;23.360;2023-02-19T13:24:32;95168.75;;;21.66;28.64
34742;BME280;20968;42.696;23.360;2023-02-19T13:27:09;95164.69;;;21.74;28.82
34742;BME280;20968;42.696;23.360;2023-02-19T13:30:03;95165.84;;;21.79;28.21
34742;BME280;20968;42.696;23.360;2023-02-19T13:32:45;95147.16;;;21.81;27.65
34742;BME280;20968;42.696;23.360;2023-02-19T13:37:40;95137.34;;;22.02;27.58
34742;BME280;20968;42.696;23.360;2023-02-19T13:40:25;95146.06;;;21.92;27.97
34742;BME280;20968;42.696;23.360;2023-02-19T13:43:07;95129.53;;;22.08;28.09
34742;BME280;20968;42.696;23.360;2023-02-19T13:45:43;95130.59;;;22.41;27.86
34742;BME280;20968;42.696;23.360;2023-02-19T13:50:48;95138.41;;;23.00;27.47
34742;BME280;20968;42.696;23.360;2023-02-19T13:58:54;95131.97;;;22.55;27.17
34742;BME280;20968;42.696;23.360;2023-02-19T14:04:24;95130.91;;;21.87;28.24
34742;BME280;20968;42.696;23.360;2023-02-19T14:09:46;95118.25;;;21.38;28.89
34742;BME280;20968;42.696;23.360;2023-02-19T14:14:47;95111.00;;;20.94;29.84
34742;BME280;20968;42.696;23.360;2023-02-19T14:33:38;95100.50;;;21.35;29.44
34742;BME280;20968;42.696;23.360;2023-02-19T14:36:13;95100.69;;;21.65;28.61
34742;BME280;20968;42.696;23.360;2023-02-19T14:39:22;95099.59;;;21.68;28.91
34742;BME280;20968;42.696;23.360;2023-02-19T14:41:51;95099.41;;;21.66;28.95
34742;BME280;20968;42.696;23.360;2023-02-19T14:44:21;95086.03;;;21.52;29.08
34742;BME280;20968;42.696;23.360;2023-02-19T14:47:06;95075.38;;;21.22;29.47
34742;BME280;20968;42.696;23.360;2023-02-19T14:49:43;95077.13;;;21.05;29.76
34742;BME280;20968;42.696;23.360;2023-02-19T14:52:24;95085.28;;;20.96;30.45
34742;BME280;20968;42.696;23.360;2023-02-19T14:54:57;95085.94;;;20.89;30.71
34742;BME280;20968;42.696;23.360;2023-02-19T14:57:28;95075.28;;;20.87;30.93
34742;BME280;20968;42.696;23.360;2023-02-19T14:59:56;95072.63;;;20.82;31.65